Aviation Digital Data Service (ADDS)

Output produced by METARs form (1222 UTC 26 March 2019)
found at http://www.aviationweather.gov/metar/data/
 
GOGS 261200Z 34006KT CAVOK 26/18 Q1013
TAF GOGS 261130Z 2612/2712 VRB05KT CAVOK
       
GOOK 261200Z 36002KT CAVOK 29/14 Q1014
GOTK 261200Z 32006KT CAVOK 23/21 Q1012
GOOY 261200Z 34010KT 9999 SCT010 24/16 Q1016
TAF GOOY 261130Z 2612/2718 34010KT 9999 SCT010
       
GOSS 261200Z 30010KT 9999 SCT010 25/16 Q1015
TAF GOSS 261130Z 2612/2712 36008KT CAVOK
       
GOTT 261200Z 32006KT CAVOK 30/17 Q1012
GOGG 261200Z 32006KT CAVOK 27/15 Q1014